sensor_id;sensor_type;location;lat;lon;timestamp;temperature;humidity
72591;SHT31;60625;51.212;5.952;2022-11-24T00:02:38;8.76;84.03
72591;SHT31;60625;51.212;5.952;2022-11-24T00:07:38;8.77;83.92
72591;SHT31;60625;51.212;5.952;2022-11-24T00:12:38;8.79;83.75
72591;SHT31;60625;51.212;5.952;2022-11-24T00:17:39;8.78;83.71
72591;SHT31;60625;51.212;5.952;2022-11-24T00:22:39;8.76;83.70
72591;SHT31;60625;51.212;5.952;2022-11-24T00:27:43;8.77;83.58
72591;SHT31;60625;51.212;5.952;2022-11-24T00:32:43;8.76;83.47
72591;SHT31;60625;51.212;5.952;2022-11-24T00:37:44;8.78;83.31
72591;SHT31;60625;51.212;5.952;2022-11-24T00:42:44;8.79;83.21
72591;SHT31;60625;51.212;5.952;2022-11-24T00:47:44;8.80;83.08
72591;SHT31;60625;51.212;5.952;2022-11-24T00:52:45;8.81;82.96
72591;SHT31;60625;51.212;5.952;2022-11-24T00:57:45;8.82;82.83
72591;SHT31;60625;51.212;5.952;2022-11-24T01:02:46;8.80;82.85
72591;SHT31;60625;51.212;5.952;2022-11-24T01:07:48;8.80;82.82
72591;SHT31;60625;51.212;5.952;2022-11-24T01:12:49;8.79;82.80
72591;SHT31;60625;51.212;5.952;2022-11-24T01:17:50;8.78;82.79
72591;SHT31;60625;51.212;5.952;2022-11-24T01:22:50;8.79;82.71
72591;SHT31;60625;51.212;5.952;2022-11-24T01:27:51;8.78;82.71
72591;SHT31;60625;51.212;5.952;2022-11-24T01:32:52;8.78;82.75
72591;SHT31;60625;51.212;5.952;2022-11-24T01:37:52;8.78;82.75
72591;SHT31;60625;51.212;5.952;2022-11-24T01:42:52;8.80;82.72
72591;SHT31;60625;51.212;5.952;2022-11-24T01:47:53;8.80;82.75
72591;SHT31;60625;51.212;5.952;2022-11-24T01:52:54;8.83;82.81
72591;SHT31;60625;51.212;5.952;2022-11-24T01:57:58;8.86;82.81
72591;SHT31;60625;51.212;5.952;2022-11-24T02:03:05;8.90;82.75
72591;SHT31;60625;51.212;5.952;2022-11-24T02:08:09;8.91;82.72
72591;SHT31;60625;51.212;5.952;2022-11-24T02:13:34;8.92;82.67
72591;SHT31;60625;51.212;5.952;2022-11-24T02:18:37;8.93;82.54
72591;SHT31;60625;51.212;5.952;2022-11-24T02:28:52;8.90;82.51
72591;SHT31;60625;51.212;5.952;2022-11-24T02:33:53;8.93;82.43
72591;SHT31;60625;51.212;5.952;2022-11-24T02:38:54;8.94;82.36
72591;SHT31;60625;51.212;5.952;2022-11-24T02:43:55;8.95;82.30
72591;SHT31;60625;51.212;5.952;2022-11-24T02:48:59;8.98;82.32
72591;SHT31;60625;51.212;5.952;2022-11-24T02:53:59;9.03;82.37
72591;SHT31;60625;51.212;5.952;2022-11-24T02:59:00;9.09;82.30
72591;SHT31;60625;51.212;5.952;2022-11-24T03:04:00;9.14;82.28
72591;SHT31;60625;51.212;5.952;2022-11-24T03:09:01;9.20;82.19
72591;SHT31;60625;51.212;5.952;2022-11-24T03:14:01;9.23;82.10
72591;SHT31;60625;51.212;5.952;2022-11-24T03:19:02;9.24;82.16
72591;SHT31;60625;51.212;5.952;2022-11-24T03:24:03;9.27;82.13
72591;SHT31;60625;51.212;5.952;2022-11-24T03:29:04;9.28;82.23
72591;SHT31;60625;51.212;5.952;2022-11-24T03:34:05;9.28;82.28
72591;SHT31;60625;51.212;5.952;2022-11-24T03:39:05;9.30;82.10
72591;SHT31;60625;51.212;5.952;2022-11-24T03:44:06;9.33;82.04
72591;SHT31;60625;51.212;5.952;2022-11-24T03:49:06;9.34;81.94
72591;SHT31;60625;51.212;5.952;2022-11-24T03:54:07;9.37;81.83
72591;SHT31;60625;51.212;5.952;2022-11-24T03:59:08;9.37;81.81
72591;SHT31;60625;51.212;5.952;2022-11-24T04:04:09;9.37;81.85
72591;SHT31;60625;51.212;5.952;2022-11-24T04:09:10;9.38;81.72
72591;SHT31;60625;51.212;5.952;2022-11-24T04:14:11;9.39;81.71
72591;SHT31;60625;51.212;5.952;2022-11-24T04:19:11;9.41;81.68
72591;SHT31;60625;51.212;5.952;2022-11-24T04:24:11;9.44;81.63
72591;SHT31;60625;51.212;5.952;2022-11-24T04:29:12;9.43;81.69
72591;SHT31;60625;51.212;5.952;2022-11-24T04:34:13;9.43;81.75
72591;SHT31;60625;51.212;5.952;2022-11-24T04:39:13;9.42;81.88
72591;SHT31;60625;51.212;5.952;2022-11-24T04:44:14;9.40;82.02
72591;SHT31;60625;51.212;5.952;2022-11-24T04:49:14;9.37;82.08
72591;SHT31;60625;51.212;5.952;2022-11-24T04:54:15;9.35;82.04
72591;SHT31;60625;51.212;5.952;2022-11-24T04:59:16;9.31;82.00
72591;SHT31;60625;51.212;5.952;2022-11-24T05:04:18;9.27;82.10
72591;SHT31;60625;51.212;5.952;2022-11-24T05:09:20;9.26;82.20
72591;SHT31;60625;51.212;5.952;2022-11-24T05:14:20;9.25;82.35
72591;SHT31;60625;51.212;5.952;2022-11-24T05:19:21;9.23;82.49
72591;SHT31;60625;51.212;5.952;2022-11-24T05:24:21;9.20;82.38
72591;SHT31;60625;51.212;5.952;2022-11-24T05:29:22;9.15;82.29
72591;SHT31;60625;51.212;5.952;2022-11-24T05:34:22;9.09;82.31
72591;SHT31;60625;51.212;5.952;2022-11-24T05:39:23;9.04;82.30
72591;SHT31;60625;51.212;5.952;2022-11-24T05:44:24;9.00;82.19
72591;SHT31;60625;51.212;5.952;2022-11-24T05:49:24;8.95;81.98
72591;SHT31;60625;51.212;5.952;2022-11-24T05:54:25;8.93;81.62
72591;SHT31;60625;51.212;5.952;2022-11-24T05:59:26;8.88;81.60
72591;SHT31;60625;51.212;5.952;2022-11-24T06:04:26;8.84;81.49
72591;SHT31;60625;51.212;5.952;2022-11-24T06:09:27;8.79;81.43
72591;SHT31;60625;51.212;5.952;2022-11-24T06:14:28;8.77;81.07
72591;SHT31;60625;51.212;5.952;2022-11-24T06:19:28;8.75;80.72
72591;SHT31;60625;51.212;5.952;2022-11-24T06:24:29;8.73;80.28
72591;SHT31;60625;51.212;5.952;2022-11-24T06:29:29;8.74;80.25
72591;SHT31;60625;51.212;5.952;2022-11-24T06:34:30;8.74;79.75
72591;SHT31;60625;51.212;5.952;2022-11-24T06:39:30;8.76;79.41
72591;SHT31;60625;51.212;5.952;2022-11-24T06:44:31;8.80;79.25
72591;SHT31;60625;51.212;5.952;2022-11-24T06:49:31;8.83;79.07
72591;SHT31;60625;51.212;5.952;2022-11-24T06:54:32;8.86;78.90
72591;SHT31;60625;51.212;5.952;2022-11-24T06:59:32;8.87;78.99
72591;SHT31;60625;51.212;5.952;2022-11-24T07:04:33;8.90;78.68
72591;SHT31;60625;51.212;5.952;2022-11-24T07:09:33;8.91;78.75
72591;SHT31;60625;51.212;5.952;2022-11-24T07:14:33;8.89;78.69
72591;SHT31;60625;51.212;5.952;2022-11-24T07:19:34;8.83;78.76
72591;SHT31;60625;51.212;5.952;2022-11-24T07:24:34;8.75;78.92
72591;SHT31;60625;51.212;5.952;2022-11-24T07:29:35;8.68;79.26
72591;SHT31;60625;51.212;5.952;2022-11-24T07:34:35;8.63;79.50
72591;SHT31;60625;51.212;5.952;2022-11-24T07:39:36;8.62;79.72
72591;SHT31;60625;51.212;5.952;2022-11-24T07:44:36;8.65;79.89
72591;SHT31;60625;51.212;5.952;2022-11-24T07:49:37;8.66;80.01
72591;SHT31;60625;51.212;5.952;2022-11-24T07:54:38;8.65;80.20
72591;SHT31;60625;51.212;5.952;2022-11-24T07:59:39;8.66;80.39
72591;SHT31;60625;51.212;5.952;2022-11-24T08:04:40;8.66;80.50
72591;SHT31;60625;51.212;5.952;2022-11-24T08:09:40;8.67;80.60
72591;SHT31;60625;51.212;5.952;2022-11-24T08:14:40;8.70;80.69
72591;SHT31;60625;51.212;5.952;2022-11-24T08:19:41;8.69;80.79
72591;SHT31;60625;51.212;5.952;2022-11-24T08:24:41;8.69;80.89
72591;SHT31;60625;51.212;5.952;2022-11-24T08:29:46;8.70;81.02
72591;SHT31;60625;51.212;5.952;2022-11-24T08:34:46;8.82;80.94
72591;SHT31;60625;51.212;5.952;2022-11-24T08:39:47;9.08;80.40
72591;SHT31;60625;51.212;5.952;2022-11-24T08:44:47;9.28;79.97
72591;SHT31;60625;51.212;5.952;2022-11-24T08:49:47;9.42;79.68
72591;SHT31;60625;51.212;5.952;2022-11-24T08:54:48;9.62;79.25
72591;SHT31;60625;51.212;5.952;2022-11-24T08:59:49;9.79;78.75
72591;SHT31;60625;51.212;5.952;2022-11-24T09:04:50;9.91;78.28
72591;SHT31;60625;51.212;5.952;2022-11-24T09:09:51;10.03;77.96
72591;SHT31;60625;51.212;5.952;2022-11-24T09:14:52;10.14;77.86
72591;SHT31;60625;51.212;5.952;2022-11-24T09:19:52;10.22;77.39
72591;SHT31;60625;51.212;5.952;2022-11-24T09:24:53;10.28;77.33
72591;SHT31;60625;51.212;5.952;2022-11-24T09:29:54;10.37;77.01
72591;SHT31;60625;51.212;5.952;2022-11-24T09:34:54;10.48;76.79
72591;SHT31;60625;51.212;5.952;2022-11-24T09:39:55;10.59;76.49
72591;SHT31;60625;51.212;5.952;2022-11-24T09:50:09;10.79;76.04
72591;SHT31;60625;51.212;5.952;2022-11-24T09:55:21;10.93;75.41
72591;SHT31;60625;51.212;5.952;2022-11-24T10:00:29;11.04;75.21
72591;SHT31;60625;51.212;5.952;2022-11-24T10:05:30;11.16;74.82
72591;SHT31;60625;51.212;5.952;2022-11-24T10:10:40;11.29;74.54
72591;SHT31;60625;51.212;5.952;2022-11-24T10:27:17;11.74;73.55
72591;SHT31;60625;51.212;5.952;2022-11-24T10:32:29;11.95;73.15
72591;SHT31;60625;51.212;5.952;2022-11-24T10:37:36;12.08;72.70
72591;SHT31;60625;51.212;5.952;2022-11-24T10:42:46;12.21;72.63
72591;SHT31;60625;51.212;5.952;2022-11-24T10:47:48;12.35;71.72
72591;SHT31;60625;51.212;5.952;2022-11-24T10:58:13;12.62;71.56
72591;SHT31;60625;51.212;5.952;2022-11-24T11:03:17;12.76;70.71
72591;SHT31;60625;51.212;5.952;2022-11-24T11:13:27;12.93;70.24
72591;SHT31;60625;51.212;5.952;2022-11-24T11:18:31;13.08;70.35
72591;SHT31;60625;51.212;5.952;2022-11-24T11:23:33;13.16;69.08
72591;SHT31;60625;51.212;5.952;2022-11-24T11:28:35;13.25;69.51
72591;SHT31;60625;51.212;5.952;2022-11-24T11:33:36;13.42;69.32
72591;SHT31;60625;51.212;5.952;2022-11-24T11:38:37;13.50;68.24
72591;SHT31;60625;51.212;5.952;2022-11-24T11:43:40;13.54;67.83
72591;SHT31;60625;51.212;5.952;2022-11-24T11:48:43;13.57;67.99
72591;SHT31;60625;51.212;5.952;2022-11-24T11:53:52;13.59;67.34
72591;SHT31;60625;51.212;5.952;2022-11-24T12:04:51;13.69;66.93
72591;SHT31;60625;51.212;5.952;2022-11-24T12:26:58;14.09;66.71
72591;SHT31;60625;51.212;5.952;2022-11-24T12:37:14;14.01;66.39
72591;SHT31;60625;51.212;5.952;2022-11-24T12:48:30;14.13;66.68
72591;SHT31;60625;51.212;5.952;2022-11-24T12:54:02;14.13;66.32
72591;SHT31;60625;51.212;5.952;2022-11-24T13:15:26;14.20;65.63
72591;SHT31;60625;51.212;5.952;2022-11-24T13:20:32;14.22;65.68
72591;SHT31;60625;51.212;5.952;2022-11-24T13:25:38;14.19;65.70
72591;SHT31;60625;51.212;5.952;2022-11-24T13:31:07;14.21;65.57
72591;SHT31;60625;51.212;5.952;2022-11-24T13:52:34;14.10;65.71
72591;SHT31;60625;51.212;5.952;2022-11-24T13:57:40;13.90;65.78
72591;SHT31;60625;51.212;5.952;2022-11-24T14:02:44;13.73;66.46
72591;SHT31;60625;51.212;5.952;2022-11-24T14:07:46;13.62;66.81
72591;SHT31;60625;51.212;5.952;2022-11-24T14:18:27;13.33;67.25
72591;SHT31;60625;51.212;5.952;2022-11-24T14:23:28;13.28;67.54
72591;SHT31;60625;51.212;5.952;2022-11-24T14:28:30;13.20;67.78
72591;SHT31;60625;51.212;5.952;2022-11-24T14:33:32;13.13;68.11
72591;SHT31;60625;51.212;5.952;2022-11-24T14:38:33;13.06;68.32
72591;SHT31;60625;51.212;5.952;2022-11-24T14:43:35;12.92;68.73
72591;SHT31;60625;51.212;5.952;2022-11-24T14:48:36;12.80;69.00
72591;SHT31;60625;51.212;5.952;2022-11-24T14:53:40;12.69;69.23
72591;SHT31;60625;51.212;5.952;2022-11-24T14:58:42;12.55;69.47
72591;SHT31;60625;51.212;5.952;2022-11-24T15:03:42;12.40;69.72
72591;SHT31;60625;51.212;5.952;2022-11-24T15:08:43;12.32;69.98
72591;SHT31;60625;51.212;5.952;2022-11-24T15:13:50;12.22;70.36
72591;SHT31;60625;51.212;5.952;2022-11-24T15:18:56;12.14;70.64
72591;SHT31;60625;51.212;5.952;2022-11-24T15:29:17;11.97;71.23
72591;SHT31;60625;51.212;5.952;2022-11-24T15:34:18;11.88;71.47
72591;SHT31;60625;51.212;5.952;2022-11-24T15:39:18;11.77;71.70
72591;SHT31;60625;51.212;5.952;2022-11-24T15:44:19;11.64;72.06
72591;SHT31;60625;51.212;5.952;2022-11-24T15:49:19;11.53;72.37
72591;SHT31;60625;51.212;5.952;2022-11-24T15:54:20;11.42;72.58
72591;SHT31;60625;51.212;5.952;2022-11-24T15:59:22;11.33;72.78
72591;SHT31;60625;51.212;5.952;2022-11-24T16:04:23;11.20;73.05
72591;SHT31;60625;51.212;5.952;2022-11-24T16:09:23;11.10;73.18
72591;SHT31;60625;51.212;5.952;2022-11-24T16:14:24;11.00;73.39
72591;SHT31;60625;51.212;5.952;2022-11-24T16:19:24;10.89;73.45
72591;SHT31;60625;51.212;5.952;2022-11-24T16:24:25;10.82;73.60
72591;SHT31;60625;51.212;5.952;2022-11-24T16:29:26;10.74;73.58
72591;SHT31;60625;51.212;5.952;2022-11-24T16:34:26;10.65;73.60
72591;SHT31;60625;51.212;5.952;2022-11-24T16:39:26;10.56;73.58
72591;SHT31;60625;51.212;5.952;2022-11-24T16:44:27;10.48;73.62
72591;SHT31;60625;51.212;5.952;2022-11-24T16:49:28;10.42;73.71
72591;SHT31;60625;51.212;5.952;2022-11-24T16:54:29;10.35;73.78
72591;SHT31;60625;51.212;5.952;2022-11-24T16:59:30;10.31;73.82
72591;SHT31;60625;51.212;5.952;2022-11-24T17:04:30;10.24;73.93
72591;SHT31;60625;51.212;5.952;2022-11-24T17:09:31;10.17;73.93
72591;SHT31;60625;51.212;5.952;2022-11-24T17:14:32;10.11;73.79
72591;SHT31;60625;51.212;5.952;2022-11-24T17:19:32;10.06;73.71
72591;SHT31;60625;51.212;5.952;2022-11-24T17:24:33;10.03;73.75
72591;SHT31;60625;51.212;5.952;2022-11-24T17:29:34;9.97;73.73
72591;SHT31;60625;51.212;5.952;2022-11-24T17:34:34;9.93;73.75
72591;SHT31;60625;51.212;5.952;2022-11-24T17:39:34;9.91;73.86
72591;SHT31;60625;51.212;5.952;2022-11-24T17:44:35;9.85;73.87
72591;SHT31;60625;51.212;5.952;2022-11-24T17:49:36;9.78;73.99
72591;SHT31;60625;51.212;5.952;2022-11-24T17:54:37;9.76;73.98
72591;SHT31;60625;51.212;5.952;2022-11-24T17:59:37;9.69;74.10
72591;SHT31;60625;51.212;5.952;2022-11-24T18:04:37;9.67;74.15
72591;SHT31;60625;51.212;5.952;2022-11-24T18:09:38;9.64;74.14
72591;SHT31;60625;51.212;5.952;2022-11-24T18:14:39;9.60;74.14
72591;SHT31;60625;51.212;5.952;2022-11-24T18:19:39;9.56;74.20
72591;SHT31;60625;51.212;5.952;2022-11-24T18:24:39;9.53;74.28
72591;SHT31;60625;51.212;5.952;2022-11-24T18:29:40;9.47;74.28
72591;SHT31;60625;51.212;5.952;2022-11-24T18:34:40;9.40;74.38
72591;SHT31;60625;51.212;5.952;2022-11-24T18:39:41;9.33;74.46
72591;SHT31;60625;51.212;5.952;2022-11-24T18:44:42;9.27;74.47
72591;SHT31;60625;51.212;5.952;2022-11-24T18:49:43;9.21;74.54
72591;SHT31;60625;51.212;5.952;2022-11-24T18:54:44;9.13;74.69
72591;SHT31;60625;51.212;5.952;2022-11-24T18:59:45;9.06;74.85
72591;SHT31;60625;51.212;5.952;2022-11-24T19:04:46;9.01;74.92
72591;SHT31;60625;51.212;5.952;2022-11-24T19:09:46;8.95;74.99
72591;SHT31;60625;51.212;5.952;2022-11-24T19:14:47;8.88;75.08
72591;SHT31;60625;51.212;5.952;2022-11-24T19:19:47;8.82;75.10
72591;SHT31;60625;51.212;5.952;2022-11-24T19:24:48;8.75;75.18
72591;SHT31;60625;51.212;5.952;2022-11-24T19:29:50;8.71;75.34
72591;SHT31;60625;51.212;5.952;2022-11-24T19:34:50;8.67;75.50
72591;SHT31;60625;51.212;5.952;2022-11-24T19:39:51;8.61;75.60
72591;SHT31;60625;51.212;5.952;2022-11-24T19:44:51;8.57;75.60
72591;SHT31;60625;51.212;5.952;2022-11-24T19:49:52;8.52;75.65
72591;SHT31;60625;51.212;5.952;2022-11-24T19:54:53;8.48;75.71
72591;SHT31;60625;51.212;5.952;2022-11-24T19:59:53;8.41;75.84
72591;SHT31;60625;51.212;5.952;2022-11-24T20:04:54;8.35;75.99
72591;SHT31;60625;51.212;5.952;2022-11-24T20:09:55;8.31;76.08
72591;SHT31;60625;51.212;5.952;2022-11-24T20:14:55;8.27;76.21
72591;SHT31;60625;51.212;5.952;2022-11-24T20:19:56;8.24;76.34
72591;SHT31;60625;51.212;5.952;2022-11-24T20:24:56;8.20;76.54
72591;SHT31;60625;51.212;5.952;2022-11-24T20:29:57;8.15;76.75
72591;SHT31;60625;51.212;5.952;2022-11-24T20:34:57;8.09;77.02
72591;SHT31;60625;51.212;5.952;2022-11-24T20:39:58;8.04;77.15
72591;SHT31;60625;51.212;5.952;2022-11-24T20:45:02;8.01;77.18
72591;SHT31;60625;51.212;5.952;2022-11-24T20:50:04;7.99;77.22
72591;SHT31;60625;51.212;5.952;2022-11-24T20:55:06;7.97;77.39
72591;SHT31;60625;51.212;5.952;2022-11-24T21:00:08;7.96;77.51
72591;SHT31;60625;51.212;5.952;2022-11-24T21:05:09;7.98;77.63
72591;SHT31;60625;51.212;5.952;2022-11-24T21:10:09;8.01;77.77
72591;SHT31;60625;51.212;5.952;2022-11-24T21:15:10;8.06;77.78
72591;SHT31;60625;51.212;5.952;2022-11-24T21:20:11;8.11;77.74
72591;SHT31;60625;51.212;5.952;2022-11-24T21:25:11;8.15;77.76
72591;SHT31;60625;51.212;5.952;2022-11-24T21:30:12;8.19;77.85
72591;SHT31;60625;51.212;5.952;2022-11-24T21:35:13;8.22;77.86
72591;SHT31;60625;51.212;5.952;2022-11-24T21:40:14;8.25;77.81
72591;SHT31;60625;51.212;5.952;2022-11-24T21:45:15;8.28;77.89
72591;SHT31;60625;51.212;5.952;2022-11-24T21:50:16;8.31;77.92
72591;SHT31;60625;51.212;5.952;2022-11-24T21:55:16;8.32;78.07
72591;SHT31;60625;51.212;5.952;2022-11-24T22:00:17;8.31;78.26
72591;SHT31;60625;51.212;5.952;2022-11-24T22:05:19;8.27;78.50
72591;SHT31;60625;51.212;5.952;2022-11-24T22:10:19;8.22;78.74
72591;SHT31;60625;51.212;5.952;2022-11-24T22:15:20;8.23;79.03
72591;SHT31;60625;51.212;5.952;2022-11-24T22:20:21;8.24;79.40
72591;SHT31;60625;51.212;5.952;2022-11-24T22:25:21;8.26;79.67
72591;SHT31;60625;51.212;5.952;2022-11-24T22:30:22;8.29;79.89
72591;SHT31;60625;51.212;5.952;2022-11-24T22:35:22;8.34;80.16
72591;SHT31;60625;51.212;5.952;2022-11-24T22:40:23;8.39;80.29
72591;SHT31;60625;51.212;5.952;2022-11-24T22:45:24;8.47;80.56
72591;SHT31;60625;51.212;5.952;2022-11-24T22:50:24;8.53;80.61
72591;SHT31;60625;51.212;5.952;2022-11-24T22:55:25;8.60;80.66
72591;SHT31;60625;51.212;5.952;2022-11-24T23:00:25;8.64;80.75
72591;SHT31;60625;51.212;5.952;2022-11-24T23:05:26;8.69;80.82
72591;SHT31;60625;51.212;5.952;2022-11-24T23:10:28;8.72;80.86
72591;SHT31;60625;51.212;5.952;2022-11-24T23:15:29;8.75;80.86
72591;SHT31;60625;51.212;5.952;2022-11-24T23:20:30;8.79;80.93
72591;SHT31;60625;51.212;5.952;2022-11-24T23:25:32;8.82;81.05
72591;SHT31;60625;51.212;5.952;2022-11-24T23:30:33;8.87;81.15
72591;SHT31;60625;51.212;5.952;2022-11-24T23:35:33;8.92;81.26
72591;SHT31;60625;51.212;5.952;2022-11-24T23:40:34;8.95;81.36
72591;SHT31;60625;51.212;5.952;2022-11-24T23:45:35;9.00;81.32
72591;SHT31;60625;51.212;5.952;2022-11-24T23:50:37;9.07;81.38
72591;SHT31;60625;51.212;5.952;2022-11-24T23:55:38;9.13;81.37
